sensor_id;sensor_type;location;lat;lon;timestamp;P1;durP1;ratioP1;P2;durP2;ratioP2
40204;SDS011;26963;42.666;23.366;2023-05-01T00:00:11;8.45;;;6.70;;
40204;SDS011;26963;42.666;23.366;2023-05-01T00:02:36;9.73;;;8.35;;
40204;SDS011;26963;42.666;23.366;2023-05-01T00:05:02;8.40;;;7.13;;
40204;SDS011;26963;42.666;23.366;2023-05-01T00:07:28;10.60;;;6.18;;
40204;SDS011;26963;42.666;23.366;2023-05-01T00:09:58;7.60;;;5.45;;
40204;SDS011;26963;42.666;23.366;2023-05-01T00:12:24;6.88;;;5.40;;
40204;SDS011;26963;42.666;23.366;2023-05-01T00:14:50;7.38;;;5.97;;
40204;SDS011;26963;42.666;23.366;2023-05-01T00:17:17;7.40;;;5.97;;
40204;SDS011;26963;42.666;23.366;2023-05-01T00:19:43;9.25;;;7.68;;
40204;SDS011;26963;42.666;23.366;2023-05-01T00:22:08;9.07;;;7.63;;
40204;SDS011;26963;42.666;23.366;2023-05-01T00:24:34;7.82;;;7.03;;
40204;SDS011;26963;42.666;23.366;2023-05-01T00:27:00;7.53;;;5.97;;
40204;SDS011;26963;42.666;23.366;2023-05-01T00:29:25;9.25;;;6.43;;
40204;SDS011;26963;42.666;23.366;2023-05-01T00:31:53;8.98;;;5.82;;
40204;SDS011;26963;42.666;23.366;2023-05-01T00:34:19;7.75;;;6.10;;
40204;SDS011;26963;42.666;23.366;2023-05-01T00:36:44;9.43;;;5.85;;
40204;SDS011;26963;42.666;23.366;2023-05-01T00:39:10;7.53;;;5.88;;
40204;SDS011;26963;42.666;23.366;2023-05-01T00:41:36;8.65;;;5.40;;
40204;SDS011;26963;42.666;23.366;2023-05-01T00:44:01;6.60;;;5.45;;
40204;SDS011;26963;42.666;23.366;2023-05-01T00:46:30;12.82;;;5.35;;
40204;SDS011;26963;42.666;23.366;2023-05-01T00:49:00;9.60;;;6.07;;
40204;SDS011;26963;42.666;23.366;2023-05-01T00:51:26;7.97;;;6.28;;
40204;SDS011;26963;42.666;23.366;2023-05-01T00:53:57;9.07;;;5.90;;
40204;SDS011;26963;42.666;23.366;2023-05-01T00:56:23;10.27;;;5.72;;
40204;SDS011;26963;42.666;23.366;2023-05-01T00:58:50;8.00;;;6.70;;
40204;SDS011;26963;42.666;23.366;2023-05-01T01:01:20;7.70;;;5.93;;
40204;SDS011;26963;42.666;23.366;2023-05-01T01:03:47;6.85;;;5.47;;
40204;SDS011;26963;42.666;23.366;2023-05-01T01:06:57;6.57;;;5.80;;
40204;SDS011;26963;42.666;23.366;2023-05-01T01:12:19;8.13;;;5.65;;
40204;SDS011;26963;42.666;23.366;2023-05-01T01:17:48;7.32;;;6.20;;
40204;SDS011;26963;42.666;23.366;2023-05-01T01:20:31;13.23;;;9.80;;
40204;SDS011;26963;42.666;23.366;2023-05-01T01:25:32;20.55;;;18.27;;
40204;SDS011;26963;42.666;23.366;2023-05-01T01:31:16;31.25;;;27.83;;
40204;SDS011;26963;42.666;23.366;2023-05-01T01:34:02;36.25;;;32.65;;
40204;SDS011;26963;42.666;23.366;2023-05-01T01:36:42;31.52;;;28.42;;
40204;SDS011;26963;42.666;23.366;2023-05-01T01:41:50;35.35;;;31.85;;
40204;SDS011;26963;42.666;23.366;2023-05-01T01:44:22;31.63;;;28.42;;
40204;SDS011;26963;42.666;23.366;2023-05-01T01:46:52;22.10;;;19.77;;
40204;SDS011;26963;42.666;23.366;2023-05-01T01:49:41;28.40;;;25.50;;
40204;SDS011;26963;42.666;23.366;2023-05-01T01:52:06;31.80;;;28.20;;
40204;SDS011;26963;42.666;23.366;2023-05-01T01:54:36;30.48;;;27.45;;
40204;SDS011;26963;42.666;23.366;2023-05-01T01:57:05;24.27;;;21.77;;
40204;SDS011;26963;42.666;23.366;2023-05-01T01:59:32;25.85;;;23.33;;
40204;SDS011;26963;42.666;23.366;2023-05-01T02:01:59;27.77;;;24.77;;
40204;SDS011;26963;42.666;23.366;2023-05-01T02:04:26;34.08;;;30.75;;
40204;SDS011;26963;42.666;23.366;2023-05-01T02:06:56;25.65;;;23.02;;
40204;SDS011;26963;42.666;23.366;2023-05-01T02:09:27;24.73;;;22.30;;
40204;SDS011;26963;42.666;23.366;2023-05-01T02:11:53;25.55;;;22.92;;
40204;SDS011;26963;42.666;23.366;2023-05-01T02:14:20;16.27;;;14.65;;
40204;SDS011;26963;42.666;23.366;2023-05-01T02:16:47;13.52;;;10.77;;
40204;SDS011;26963;42.666;23.366;2023-05-01T02:19:14;15.48;;;12.05;;
40204;SDS011;26963;42.666;23.366;2023-05-01T02:21:41;16.98;;;15.38;;
40204;SDS011;26963;42.666;23.366;2023-05-01T02:24:09;18.83;;;16.80;;
40204;SDS011;26963;42.666;23.366;2023-05-01T02:26:40;26.67;;;21.58;;
40204;SDS011;26963;42.666;23.366;2023-05-01T02:29:08;30.88;;;27.65;;
40204;SDS011;26963;42.666;23.366;2023-05-01T02:31:34;29.25;;;24.98;;
40204;SDS011;26963;42.666;23.366;2023-05-01T02:34:00;30.50;;;27.42;;
40204;SDS011;26963;42.666;23.366;2023-05-01T02:36:26;29.25;;;25.45;;
40204;SDS011;26963;42.666;23.366;2023-05-01T02:38:52;17.83;;;15.70;;
40204;SDS011;26963;42.666;23.366;2023-05-01T02:41:19;22.15;;;19.85;;
40204;SDS011;26963;42.666;23.366;2023-05-01T02:43:47;20.35;;;18.25;;
40204;SDS011;26963;42.666;23.366;2023-05-01T02:46:17;20.92;;;18.83;;
40204;SDS011;26963;42.666;23.366;2023-05-01T02:48:45;18.85;;;15.73;;
40204;SDS011;26963;42.666;23.366;2023-05-01T02:51:12;18.45;;;15.38;;
40204;SDS011;26963;42.666;23.366;2023-05-01T02:53:38;23.25;;;20.85;;
40204;SDS011;26963;42.666;23.366;2023-05-01T02:56:04;23.70;;;21.30;;
40204;SDS011;26963;42.666;23.366;2023-05-01T02:58:32;18.70;;;15.63;;
40204;SDS011;26963;42.666;23.366;2023-05-01T03:00:58;20.27;;;17.88;;
40204;SDS011;26963;42.666;23.366;2023-05-01T03:03:24;14.52;;;12.80;;
40204;SDS011;26963;42.666;23.366;2023-05-01T03:05:50;16.42;;;14.73;;
40204;SDS011;26963;42.666;23.366;2023-05-01T03:08:16;17.08;;;15.27;;
40204;SDS011;26963;42.666;23.366;2023-05-01T03:10:41;23.35;;;20.98;;
40204;SDS011;26963;42.666;23.366;2023-05-01T03:13:07;23.00;;;20.58;;
40204;SDS011;26963;42.666;23.366;2023-05-01T03:15:34;22.33;;;19.83;;
40204;SDS011;26963;42.666;23.366;2023-05-01T03:18:00;24.45;;;18.83;;
40204;SDS011;26963;42.666;23.366;2023-05-01T03:20:26;23.63;;;17.40;;
40204;SDS011;26963;42.666;23.366;2023-05-01T03:22:52;18.00;;;16.08;;
40204;SDS011;26963;42.666;23.366;2023-05-01T03:25:17;17.67;;;13.88;;
40204;SDS011;26963;42.666;23.366;2023-05-01T03:27:43;15.10;;;13.50;;
40204;SDS011;26963;42.666;23.366;2023-05-01T03:30:09;14.38;;;12.98;;
40204;SDS011;26963;42.666;23.366;2023-05-01T03:32:35;13.05;;;11.15;;
40204;SDS011;26963;42.666;23.366;2023-05-01T03:35:01;15.07;;;11.85;;
40204;SDS011;26963;42.666;23.366;2023-05-01T03:37:27;15.40;;;12.48;;
40204;SDS011;26963;42.666;23.366;2023-05-01T03:39:56;16.60;;;13.40;;
40204;SDS011;26963;42.666;23.366;2023-05-01T03:42:21;13.55;;;11.98;;
40204;SDS011;26963;42.666;23.366;2023-05-01T03:44:47;16.20;;;11.20;;
40204;SDS011;26963;42.666;23.366;2023-05-01T03:47:13;11.73;;;10.32;;
40204;SDS011;26963;42.666;23.366;2023-05-01T03:49:39;12.52;;;10.75;;
40204;SDS011;26963;42.666;23.366;2023-05-01T03:52:05;12.48;;;11.15;;
40204;SDS011;26963;42.666;23.366;2023-05-01T03:54:31;13.73;;;12.30;;
40204;SDS011;26963;42.666;23.366;2023-05-01T03:56:56;12.95;;;11.30;;
40204;SDS011;26963;42.666;23.366;2023-05-01T03:59:25;12.77;;;11.23;;
40204;SDS011;26963;42.666;23.366;2023-05-01T04:01:51;12.77;;;11.27;;
40204;SDS011;26963;42.666;23.366;2023-05-01T04:04:17;13.23;;;11.73;;
40204;SDS011;26963;42.666;23.366;2023-05-01T04:06:43;15.60;;;12.07;;
40204;SDS011;26963;42.666;23.366;2023-05-01T04:09:08;14.23;;;11.32;;
40204;SDS011;26963;42.666;23.366;2023-05-01T04:11:34;15.10;;;11.43;;
40204;SDS011;26963;42.666;23.366;2023-05-01T04:13:59;11.20;;;9.75;;
40204;SDS011;26963;42.666;23.366;2023-05-01T04:16:25;12.45;;;10.25;;
40204;SDS011;26963;42.666;23.366;2023-05-01T04:18:51;13.70;;;10.60;;
40204;SDS011;26963;42.666;23.366;2023-05-01T04:21:17;12.20;;;10.25;;
40204;SDS011;26963;42.666;23.366;2023-05-01T04:23:43;10.70;;;9.48;;
40204;SDS011;26963;42.666;23.366;2023-05-01T04:26:09;11.02;;;9.20;;
40204;SDS011;26963;42.666;23.366;2023-05-01T04:28:34;12.77;;;9.43;;
40204;SDS011;26963;42.666;23.366;2023-05-01T04:31:00;9.35;;;8.27;;
40204;SDS011;26963;42.666;23.366;2023-05-01T04:33:25;11.88;;;8.40;;
40204;SDS011;26963;42.666;23.366;2023-05-01T04:35:55;8.55;;;7.60;;
40204;SDS011;26963;42.666;23.366;2023-05-01T04:38:20;9.25;;;7.90;;
40204;SDS011;26963;42.666;23.366;2023-05-01T04:40:46;11.27;;;8.55;;
40204;SDS011;26963;42.666;23.366;2023-05-01T04:43:12;10.68;;;7.88;;
40204;SDS011;26963;42.666;23.366;2023-05-01T04:45:37;13.32;;;8.35;;
40204;SDS011;26963;42.666;23.366;2023-05-01T04:48:03;10.32;;;8.43;;
40204;SDS011;26963;42.666;23.366;2023-05-01T04:50:29;13.35;;;8.77;;
40204;SDS011;26963;42.666;23.366;2023-05-01T04:52:54;12.27;;;8.88;;
40204;SDS011;26963;42.666;23.366;2023-05-01T04:55:20;15.57;;;11.60;;
40204;SDS011;26963;42.666;23.366;2023-05-01T04:57:45;12.32;;;10.60;;
40204;SDS011;26963;42.666;23.366;2023-05-01T05:00:11;17.88;;;14.98;;
40204;SDS011;26963;42.666;23.366;2023-05-01T05:02:37;16.00;;;12.88;;
40204;SDS011;26963;42.666;23.366;2023-05-01T05:05:03;15.68;;;10.43;;
40204;SDS011;26963;42.666;23.366;2023-05-01T05:07:28;13.98;;;12.52;;
40204;SDS011;26963;42.666;23.366;2023-05-01T05:09:54;13.52;;;11.05;;
40204;SDS011;26963;42.666;23.366;2023-05-01T05:12:20;12.82;;;10.55;;
40204;SDS011;26963;42.666;23.366;2023-05-01T05:14:45;13.10;;;10.85;;
40204;SDS011;26963;42.666;23.366;2023-05-01T05:17:12;14.93;;;10.52;;
40204;SDS011;26963;42.666;23.366;2023-05-01T05:19:38;16.52;;;11.45;;
40204;SDS011;26963;42.666;23.366;2023-05-01T05:22:03;13.32;;;11.00;;
40204;SDS011;26963;42.666;23.366;2023-05-01T05:24:29;11.48;;;10.27;;
40204;SDS011;26963;42.666;23.366;2023-05-01T05:26:55;15.75;;;12.15;;
40204;SDS011;26963;42.666;23.366;2023-05-01T05:29:20;18.63;;;11.55;;
40204;SDS011;26963;42.666;23.366;2023-05-01T05:31:46;11.70;;;10.50;;
40204;SDS011;26963;42.666;23.366;2023-05-01T05:34:12;10.98;;;9.68;;
40204;SDS011;26963;42.666;23.366;2023-05-01T05:36:38;10.93;;;9.43;;
40204;SDS011;26963;42.666;23.366;2023-05-01T05:39:03;15.70;;;11.10;;
40204;SDS011;26963;42.666;23.366;2023-05-01T05:41:29;15.40;;;13.23;;
40204;SDS011;26963;42.666;23.366;2023-05-01T05:43:54;14.75;;;11.13;;
40204;SDS011;26963;42.666;23.366;2023-05-01T05:46:20;11.43;;;9.65;;
40204;SDS011;26963;42.666;23.366;2023-05-01T05:48:46;11.45;;;10.25;;
40204;SDS011;26963;42.666;23.366;2023-05-01T05:51:11;12.80;;;10.50;;
40204;SDS011;26963;42.666;23.366;2023-05-01T05:53:37;10.82;;;9.73;;
40204;SDS011;26963;42.666;23.366;2023-05-01T05:56:02;11.60;;;9.98;;
40204;SDS011;26963;42.666;23.366;2023-05-01T05:58:29;16.98;;;13.98;;
40204;SDS011;26963;42.666;23.366;2023-05-01T06:00:55;11.38;;;10.15;;
40204;SDS011;26963;42.666;23.366;2023-05-01T06:03:20;12.27;;;10.93;;
40204;SDS011;26963;42.666;23.366;2023-05-01T06:05:46;12.13;;;10.07;;
40204;SDS011;26963;42.666;23.366;2023-05-01T06:08:12;10.68;;;9.57;;
40204;SDS011;26963;42.666;23.366;2023-05-01T06:10:39;13.60;;;11.60;;
40204;SDS011;26963;42.666;23.366;2023-05-01T06:13:07;14.73;;;10.32;;
40204;SDS011;26963;42.666;23.366;2023-05-01T06:15:37;12.95;;;9.93;;
40204;SDS011;26963;42.666;23.366;2023-05-01T06:18:02;13.50;;;10.45;;
40204;SDS011;26963;42.666;23.366;2023-05-01T06:20:28;13.55;;;10.80;;
40204;SDS011;26963;42.666;23.366;2023-05-01T06:22:54;14.80;;;12.27;;
40204;SDS011;26963;42.666;23.366;2023-05-01T06:25:20;15.55;;;10.73;;
40204;SDS011;26963;42.666;23.366;2023-05-01T06:27:48;17.13;;;12.52;;
40204;SDS011;26963;42.666;23.366;2023-05-01T06:30:14;14.90;;;11.82;;
40204;SDS011;26963;42.666;23.366;2023-05-01T06:32:40;13.40;;;11.77;;
40204;SDS011;26963;42.666;23.366;2023-05-01T06:35:08;14.05;;;12.52;;
40204;SDS011;26963;42.666;23.366;2023-05-01T06:37:33;16.65;;;11.82;;
40204;SDS011;26963;42.666;23.366;2023-05-01T06:40:00;11.48;;;10.18;;
40204;SDS011;26963;42.666;23.366;2023-05-01T06:42:25;11.65;;;9.98;;
40204;SDS011;26963;42.666;23.366;2023-05-01T06:44:51;12.07;;;9.77;;
40204;SDS011;26963;42.666;23.366;2023-05-01T06:47:16;12.32;;;8.77;;
40204;SDS011;26963;42.666;23.366;2023-05-01T06:49:42;11.75;;;8.10;;
40204;SDS011;26963;42.666;23.366;2023-05-01T06:52:07;12.02;;;7.72;;
40204;SDS011;26963;42.666;23.366;2023-05-01T06:54:33;11.65;;;7.93;;
40204;SDS011;26963;42.666;23.366;2023-05-01T06:56:58;10.40;;;7.32;;
40204;SDS011;26963;42.666;23.366;2023-05-01T06:59:24;9.15;;;6.88;;
40204;SDS011;26963;42.666;23.366;2023-05-01T07:01:49;9.63;;;7.53;;
40204;SDS011;26963;42.666;23.366;2023-05-01T07:04:15;9.60;;;7.15;;
40204;SDS011;26963;42.666;23.366;2023-05-01T07:06:41;13.57;;;7.13;;
40204;SDS011;26963;42.666;23.366;2023-05-01T07:09:07;12.68;;;7.43;;
40204;SDS011;26963;42.666;23.366;2023-05-01T07:11:32;10.50;;;7.05;;
40204;SDS011;26963;42.666;23.366;2023-05-01T07:14:01;11.07;;;7.50;;
40204;SDS011;26963;42.666;23.366;2023-05-01T07:16:26;13.07;;;7.70;;
40204;SDS011;26963;42.666;23.366;2023-05-01T07:18:52;8.85;;;6.70;;
40204;SDS011;26963;42.666;23.366;2023-05-01T07:21:17;8.75;;;7.35;;
40204;SDS011;26963;42.666;23.366;2023-05-01T07:23:43;13.25;;;6.97;;
40204;SDS011;26963;42.666;23.366;2023-05-01T07:26:08;12.48;;;7.05;;
40204;SDS011;26963;42.666;23.366;2023-05-01T07:28:34;10.25;;;7.53;;
40204;SDS011;26963;42.666;23.366;2023-05-01T07:31:00;10.40;;;8.30;;
40204;SDS011;26963;42.666;23.366;2023-05-01T07:33:26;9.65;;;7.03;;
40204;SDS011;26963;42.666;23.366;2023-05-01T07:35:51;11.48;;;7.43;;
40204;SDS011;26963;42.666;23.366;2023-05-01T07:38:17;12.95;;;7.22;;
40204;SDS011;26963;42.666;23.366;2023-05-01T07:40:43;10.45;;;7.30;;
40204;SDS011;26963;42.666;23.366;2023-05-01T07:43:08;6.85;;;6.15;;
40204;SDS011;26963;42.666;23.366;2023-05-01T07:45:39;8.37;;;7.20;;
40204;SDS011;26963;42.666;23.366;2023-05-01T07:48:06;12.35;;;7.30;;
40204;SDS011;26963;42.666;23.366;2023-05-01T07:50:32;11.35;;;7.47;;
40204;SDS011;26963;42.666;23.366;2023-05-01T07:52:57;10.75;;;7.05;;
40204;SDS011;26963;42.666;23.366;2023-05-01T07:55:23;9.00;;;6.75;;
40204;SDS011;26963;42.666;23.366;2023-05-01T07:57:49;8.27;;;6.03;;
40204;SDS011;26963;42.666;23.366;2023-05-01T08:00:15;8.73;;;6.43;;
40204;SDS011;26963;42.666;23.366;2023-05-01T08:02:41;11.65;;;6.40;;
40204;SDS011;26963;42.666;23.366;2023-05-01T08:05:07;7.78;;;5.40;;
40204;SDS011;26963;42.666;23.366;2023-05-01T08:07:33;8.63;;;7.38;;
40204;SDS011;26963;42.666;23.366;2023-05-01T08:09:59;8.00;;;6.68;;
40204;SDS011;26963;42.666;23.366;2023-05-01T08:12:25;12.68;;;5.82;;
40204;SDS011;26963;42.666;23.366;2023-05-01T08:14:51;7.78;;;5.60;;
40204;SDS011;26963;42.666;23.366;2023-05-01T08:17:17;6.85;;;4.70;;
40204;SDS011;26963;42.666;23.366;2023-05-01T08:19:43;7.90;;;4.30;;
40204;SDS011;26963;42.666;23.366;2023-05-01T08:22:09;8.52;;;4.68;;
40204;SDS011;26963;42.666;23.366;2023-05-01T08:24:35;7.13;;;4.40;;
40204;SDS011;26963;42.666;23.366;2023-05-01T08:27:01;7.82;;;4.85;;
40204;SDS011;26963;42.666;23.366;2023-05-01T08:29:26;4.75;;;3.75;;
40204;SDS011;26963;42.666;23.366;2023-05-01T08:31:57;6.55;;;3.28;;
40204;SDS011;26963;42.666;23.366;2023-05-01T08:34:25;5.88;;;3.60;;
40204;SDS011;26963;42.666;23.366;2023-05-01T08:36:50;4.43;;;3.25;;
40204;SDS011;26963;42.666;23.366;2023-05-01T08:39:16;10.73;;;4.15;;
40204;SDS011;26963;42.666;23.366;2023-05-01T08:41:45;6.30;;;3.47;;
40204;SDS011;26963;42.666;23.366;2023-05-01T08:44:12;5.00;;;3.40;;
40204;SDS011;26963;42.666;23.366;2023-05-01T08:49:25;6.22;;;4.50;;
40204;SDS011;26963;42.666;23.366;2023-05-01T08:51:55;7.93;;;4.53;;
40204;SDS011;26963;42.666;23.366;2023-05-01T08:54:22;5.10;;;4.10;;
40204;SDS011;26963;42.666;23.366;2023-05-01T08:56:54;5.32;;;3.55;;
40204;SDS011;26963;42.666;23.366;2023-05-01T08:59:22;3.15;;;2.58;;
40204;SDS011;26963;42.666;23.366;2023-05-01T09:01:52;4.68;;;2.78;;
40204;SDS011;26963;42.666;23.366;2023-05-01T09:04:17;4.20;;;2.97;;
40204;SDS011;26963;42.666;23.366;2023-05-01T09:06:44;6.43;;;3.33;;
40204;SDS011;26963;42.666;23.366;2023-05-01T09:09:09;6.68;;;4.07;;
40204;SDS011;26963;42.666;23.366;2023-05-01T09:11:35;6.05;;;4.05;;
40204;SDS011;26963;42.666;23.366;2023-05-01T09:14:01;5.00;;;3.65;;
40204;SDS011;26963;42.666;23.366;2023-05-01T09:16:32;4.45;;;3.30;;
40204;SDS011;26963;42.666;23.366;2023-05-01T09:18:58;5.07;;;2.83;;
40204;SDS011;26963;42.666;23.366;2023-05-01T09:21:26;15.27;;;3.38;;
40204;SDS011;26963;42.666;23.366;2023-05-01T09:23:52;6.65;;;4.47;;
40204;SDS011;26963;42.666;23.366;2023-05-01T09:26:18;6.10;;;5.03;;
40204;SDS011;26963;42.666;23.366;2023-05-01T09:31:19;5.97;;;3.13;;
40204;SDS011;26963;42.666;23.366;2023-05-01T09:33:50;4.95;;;3.72;;
40204;SDS011;26963;42.666;23.366;2023-05-01T09:36:21;5.22;;;3.60;;
40204;SDS011;26963;42.666;23.366;2023-05-01T09:38:48;5.78;;;3.63;;
40204;SDS011;26963;42.666;23.366;2023-05-01T09:41:13;7.28;;;3.90;;
40204;SDS011;26963;42.666;23.366;2023-05-01T09:43:39;6.28;;;3.28;;
40204;SDS011;26963;42.666;23.366;2023-05-01T09:46:06;5.65;;;3.70;;
40204;SDS011;26963;42.666;23.366;2023-05-01T09:48:33;5.03;;;3.67;;
40204;SDS011;26963;42.666;23.366;2023-05-01T09:51:00;5.78;;;4.35;;
40204;SDS011;26963;42.666;23.366;2023-05-01T09:53:32;4.85;;;3.40;;
40204;SDS011;26963;42.666;23.366;2023-05-01T09:56:02;6.38;;;3.38;;
40204;SDS011;26963;42.666;23.366;2023-05-01T09:58:28;6.20;;;3.72;;
40204;SDS011;26963;42.666;23.366;2023-05-01T10:00:54;5.85;;;3.40;;
40204;SDS011;26963;42.666;23.366;2023-05-01T10:03:20;5.82;;;3.00;;
40204;SDS011;26963;42.666;23.366;2023-05-01T10:05:46;4.72;;;2.95;;
40204;SDS011;26963;42.666;23.366;2023-05-01T10:08:12;4.20;;;3.17;;
40204;SDS011;26963;42.666;23.366;2023-05-01T10:10:42;3.15;;;2.35;;
40204;SDS011;26963;42.666;23.366;2023-05-01T10:13:17;4.72;;;3.00;;
40204;SDS011;26963;42.666;23.366;2023-05-01T10:15:43;4.82;;;3.30;;
40204;SDS011;26963;42.666;23.366;2023-05-01T10:18:10;3.80;;;2.65;;
40204;SDS011;26963;42.666;23.366;2023-05-01T10:20:38;4.05;;;2.70;;
40204;SDS011;26963;42.666;23.366;2023-05-01T10:23:04;4.05;;;2.63;;
40204;SDS011;26963;42.666;23.366;2023-05-01T10:25:30;4.05;;;2.30;;
40204;SDS011;26963;42.666;23.366;2023-05-01T10:27:57;3.67;;;2.47;;
40204;SDS011;26963;42.666;23.366;2023-05-01T10:30:30;3.00;;;2.20;;
40204;SDS011;26963;42.666;23.366;2023-05-01T10:32:57;3.80;;;2.13;;
40204;SDS011;26963;42.666;23.366;2023-05-01T10:35:25;3.22;;;2.55;;
40204;SDS011;26963;42.666;23.366;2023-05-01T10:38:00;3.20;;;2.13;;
40204;SDS011;26963;42.666;23.366;2023-05-01T10:53:40;4.05;;;2.38;;
40204;SDS011;26963;42.666;23.366;2023-05-01T10:56:42;3.20;;;2.40;;
40204;SDS011;26963;42.666;23.366;2023-05-01T10:58:58;3.38;;;2.30;;
40204;SDS011;26963;42.666;23.366;2023-05-01T11:03:56;4.22;;;2.47;;
40204;SDS011;26963;42.666;23.366;2023-05-01T11:06:25;5.00;;;2.50;;
40204;SDS011;26963;42.666;23.366;2023-05-01T11:08:51;5.38;;;2.30;;
40204;SDS011;26963;42.666;23.366;2023-05-01T11:13:56;4.47;;;2.60;;
40204;SDS011;26963;42.666;23.366;2023-05-01T11:19:03;2.75;;;2.38;;
40204;SDS011;26963;42.666;23.366;2023-05-01T11:21:37;4.63;;;2.00;;
40204;SDS011;26963;42.666;23.366;2023-05-01T11:24:07;3.65;;;2.10;;
40204;SDS011;26963;42.666;23.366;2023-05-01T11:26:37;2.30;;;1.90;;
40204;SDS011;26963;42.666;23.366;2023-05-01T11:29:04;3.25;;;2.00;;
40204;SDS011;26963;42.666;23.366;2023-05-01T11:31:30;3.42;;;2.03;;
40204;SDS011;26963;42.666;23.366;2023-05-01T11:33:59;4.00;;;2.35;;
40204;SDS011;26963;42.666;23.366;2023-05-01T11:36:25;3.88;;;2.30;;
40204;SDS011;26963;42.666;23.366;2023-05-01T11:38:56;3.03;;;2.10;;
40204;SDS011;26963;42.666;23.366;2023-05-01T11:41:26;4.38;;;2.30;;
40204;SDS011;26963;42.666;23.366;2023-05-01T11:43:52;3.58;;;2.35;;
40204;SDS011;26963;42.666;23.366;2023-05-01T11:48:52;5.28;;;2.97;;
40204;SDS011;26963;42.666;23.366;2023-05-01T11:51:21;4.50;;;2.10;;
40204;SDS011;26963;42.666;23.366;2023-05-01T11:54:00;3.15;;;1.75;;
40204;SDS011;26963;42.666;23.366;2023-05-01T11:56:31;4.03;;;2.10;;
40204;SDS011;26963;42.666;23.366;2023-05-01T11:59:10;2.60;;;2.08;;
40204;SDS011;26963;42.666;23.366;2023-05-01T12:01:41;3.10;;;1.80;;
40204;SDS011;26963;42.666;23.366;2023-05-01T12:04:09;2.85;;;1.80;;
40204;SDS011;26963;42.666;23.366;2023-05-01T12:09:08;1.90;;;1.58;;
40204;SDS011;26963;42.666;23.366;2023-05-01T12:11:45;2.55;;;1.75;;
40204;SDS011;26963;42.666;23.366;2023-05-01T12:14:12;3.58;;;1.95;;
40204;SDS011;26963;42.666;23.366;2023-05-01T12:16:39;3.90;;;1.70;;
40204;SDS011;26963;42.666;23.366;2023-05-01T12:19:06;2.50;;;1.80;;
40204;SDS011;26963;42.666;23.366;2023-05-01T12:21:33;4.32;;;1.73;;
40204;SDS011;26963;42.666;23.366;2023-05-01T12:24:07;2.75;;;1.50;;
40204;SDS011;26963;42.666;23.366;2023-05-01T12:26:37;2.20;;;1.50;;
40204;SDS011;26963;42.666;23.366;2023-05-01T12:29:03;2.60;;;1.60;;
40204;SDS011;26963;42.666;23.366;2023-05-01T12:31:48;2.70;;;1.60;;
40204;SDS011;26963;42.666;23.366;2023-05-01T12:34:14;1.60;;;1.50;;
40204;SDS011;26963;42.666;23.366;2023-05-01T12:36:39;3.40;;;1.65;;
40204;SDS011;26963;42.666;23.366;2023-05-01T12:39:05;2.50;;;1.30;;
40204;SDS011;26963;42.666;23.366;2023-05-01T12:41:43;2.63;;;1.60;;
40204;SDS011;26963;42.666;23.366;2023-05-01T12:44:17;3.08;;;1.60;;
40204;SDS011;26963;42.666;23.366;2023-05-01T12:46:43;3.70;;;1.60;;
40204;SDS011;26963;42.666;23.366;2023-05-01T12:49:17;4.97;;;1.98;;
40204;SDS011;26963;42.666;23.366;2023-05-01T12:51:48;2.42;;;1.60;;
40204;SDS011;26963;42.666;23.366;2023-05-01T12:54:22;4.68;;;1.70;;
40204;SDS011;26963;42.666;23.366;2023-05-01T12:56:49;4.68;;;1.77;;
40204;SDS011;26963;42.666;23.366;2023-05-01T12:59:26;3.28;;;1.60;;
40204;SDS011;26963;42.666;23.366;2023-05-01T13:02:34;2.60;;;1.92;;
40204;SDS011;26963;42.666;23.366;2023-05-01T13:04:44;3.72;;;1.70;;
40204;SDS011;26963;42.666;23.366;2023-05-01T13:07:15;4.45;;;1.45;;
40204;SDS011;26963;42.666;23.366;2023-05-01T13:12:17;3.30;;;1.50;;
40204;SDS011;26963;42.666;23.366;2023-05-01T13:14:45;5.32;;;2.00;;
40204;SDS011;26963;42.666;23.366;2023-05-01T13:17:10;5.07;;;2.10;;
40204;SDS011;26963;42.666;23.366;2023-05-01T13:19:36;7.22;;;2.10;;
40204;SDS011;26963;42.666;23.366;2023-05-01T13:22:03;1.95;;;1.60;;
40204;SDS011;26963;42.666;23.366;2023-05-01T13:27:10;3.67;;;1.77;;
40204;SDS011;26963;42.666;23.366;2023-05-01T13:29:37;3.10;;;1.80;;
40204;SDS011;26963;42.666;23.366;2023-05-01T13:32:06;2.40;;;1.90;;
40204;SDS011;26963;42.666;23.366;2023-05-01T13:34:34;6.70;;;2.13;;
40204;SDS011;26963;42.666;23.366;2023-05-01T13:37:01;4.70;;;2.10;;
40204;SDS011;26963;42.666;23.366;2023-05-01T13:39:30;2.92;;;1.80;;
40204;SDS011;26963;42.666;23.366;2023-05-01T13:41:56;2.33;;;1.80;;
40204;SDS011;26963;42.666;23.366;2023-05-01T13:44:21;2.83;;;2.00;;
40204;SDS011;26963;42.666;23.366;2023-05-01T13:46:47;2.35;;;1.83;;
40204;SDS011;26963;42.666;23.366;2023-05-01T13:49:13;2.45;;;1.92;;
40204;SDS011;26963;42.666;23.366;2023-05-01T13:51:40;4.88;;;2.30;;
40204;SDS011;26963;42.666;23.366;2023-05-01T13:54:08;2.83;;;1.90;;
40204;SDS011;26963;42.666;23.366;2023-05-01T13:56:35;4.30;;;2.30;;
40204;SDS011;26963;42.666;23.366;2023-05-01T13:59:03;5.28;;;2.00;;
40204;SDS011;26963;42.666;23.366;2023-05-01T14:01:29;2.55;;;1.98;;
40204;SDS011;26963;42.666;23.366;2023-05-01T14:03:55;2.40;;;1.83;;
40204;SDS011;26963;42.666;23.366;2023-05-01T14:06:28;4.25;;;2.08;;
40204;SDS011;26963;42.666;23.366;2023-05-01T14:08:54;3.38;;;1.80;;
40204;SDS011;26963;42.666;23.366;2023-05-01T14:11:25;3.90;;;2.00;;
40204;SDS011;26963;42.666;23.366;2023-05-01T14:13:50;5.85;;;4.32;;
40204;SDS011;26963;42.666;23.366;2023-05-01T14:18:45;2.05;;;1.65;;
40204;SDS011;26963;42.666;23.366;2023-05-01T14:21:13;2.38;;;1.80;;
40204;SDS011;26963;42.666;23.366;2023-05-01T14:23:40;5.03;;;2.10;;
40204;SDS011;26963;42.666;23.366;2023-05-01T14:26:16;3.55;;;2.40;;
40204;SDS011;26963;42.666;23.366;2023-05-01T14:28:42;4.20;;;2.03;;
40204;SDS011;26963;42.666;23.366;2023-05-01T14:31:13;2.60;;;2.08;;
40204;SDS011;26963;42.666;23.366;2023-05-01T14:34:01;3.38;;;2.03;;
40204;SDS011;26963;42.666;23.366;2023-05-01T14:36:28;4.55;;;2.47;;
40204;SDS011;26963;42.666;23.366;2023-05-01T14:39:00;2.88;;;2.10;;
40204;SDS011;26963;42.666;23.366;2023-05-01T14:41:26;4.68;;;2.00;;
40204;SDS011;26963;42.666;23.366;2023-05-01T14:43:55;3.78;;;2.35;;
40204;SDS011;26963;42.666;23.366;2023-05-01T14:46:31;3.28;;;1.83;;
40204;SDS011;26963;42.666;23.366;2023-05-01T14:49:00;3.05;;;2.08;;
40204;SDS011;26963;42.666;23.366;2023-05-01T14:51:26;2.33;;;1.88;;
40204;SDS011;26963;42.666;23.366;2023-05-01T14:53:56;3.60;;;1.70;;
40204;SDS011;26963;42.666;23.366;2023-05-01T14:56:21;3.03;;;1.70;;
40204;SDS011;26963;42.666;23.366;2023-05-01T14:58:47;3.40;;;2.13;;
40204;SDS011;26963;42.666;23.366;2023-05-01T15:01:13;3.92;;;2.00;;
40204;SDS011;26963;42.666;23.366;2023-05-01T15:03:39;2.20;;;1.67;;
40204;SDS011;26963;42.666;23.366;2023-05-01T15:06:05;3.53;;;2.20;;
40204;SDS011;26963;42.666;23.366;2023-05-01T15:08:32;3.40;;;1.88;;
40204;SDS011;26963;42.666;23.366;2023-05-01T15:10:58;2.20;;;1.67;;
40204;SDS011;26963;42.666;23.366;2023-05-01T15:13:24;3.58;;;1.80;;
40204;SDS011;26963;42.666;23.366;2023-05-01T15:15:50;3.70;;;2.00;;
40204;SDS011;26963;42.666;23.366;2023-05-01T15:18:16;2.58;;;1.50;;
40204;SDS011;26963;42.666;23.366;2023-05-01T15:20:42;1.95;;;1.38;;